createdAt,value
2019-03-25T00:02:15.545Z,101132.02
2019-03-25T00:04:48.487Z,101134.11
2019-03-25T00:07:17.687Z,101125.98
2019-03-25T00:09:46.840Z,101126.79
2019-03-25T00:12:15.999Z,101125.63
2019-03-25T00:14:45.185Z,101113.55
2019-03-25T00:17:14.446Z,101119.50
2019-03-25T00:19:43.614Z,101118.08
2019-03-25T00:22:12.780Z,101110.30
2019-03-25T00:24:41.944Z,101106.22
2019-03-25T00:27:11.113Z,101107.39
2019-03-25T00:29:40.302Z,101102.75
2019-03-25T00:32:09.543Z,101101.54
2019-03-25T00:34:38.925Z,101101.95
2019-03-25T00:37:08.089Z,101111.93
2019-03-25T00:39:37.286Z,101114.75
2019-03-25T00:42:06.532Z,101101.02
2019-03-25T00:44:36.211Z,101103.73
2019-03-25T00:47:05.485Z,101098.72
2019-03-25T00:49:34.617Z,101101.92
2019-03-25T00:52:05.910Z,101103.50
2019-03-25T00:54:35.067Z,101096.39
2019-03-25T00:57:04.263Z,101097.10
2019-03-25T00:59:33.407Z,101100.84
2019-03-25T01:02:02.649Z,101105.27
2019-03-25T01:04:31.896Z,101099.17
2019-03-25T01:07:01.105Z,101101.23
2019-03-25T01:09:30.284Z,101096.95
2019-03-25T01:11:59.698Z,101101.87
2019-03-25T01:14:28.863Z,101107.03
2019-03-25T01:16:58.024Z,101104.34
2019-03-25T01:19:27.242Z,101104.13
2019-03-25T01:21:56.522Z,101099.16
2019-03-25T01:24:27.005Z,101103.24
2019-03-25T01:26:56.113Z,101097.19
2019-03-25T01:29:25.337Z,101095.18
2019-03-25T01:31:54.672Z,101096.86
2019-03-25T01:34:23.829Z,101091.23
2019-03-25T01:36:52.984Z,101092.86
2019-03-25T01:39:22.165Z,101086.03
2019-03-25T01:41:51.325Z,101081.24
2019-03-25T01:44:20.501Z,101077.64
2019-03-25T01:46:49.650Z,101076.38
2019-03-25T01:49:18.837Z,101072.14
2019-03-25T01:51:47.974Z,101076.76
2019-03-25T01:54:17.153Z,101075.33
2019-03-25T01:56:46.391Z,101072.72
2019-03-25T01:59:15.556Z,101064.28
2019-03-25T02:01:44.765Z,101060.30
2019-03-25T02:04:13.964Z,101065.70
2019-03-25T02:06:43.181Z,101060.83
2019-03-25T02:09:12.350Z,101062.62
2019-03-25T02:11:41.525Z,101064.73
2019-03-25T02:14:10.698Z,101062.27
2019-03-25T02:16:39.895Z,101057.14
2019-03-25T02:19:09.060Z,101058.88
2019-03-25T02:21:38.218Z,101056.42
2019-03-25T02:24:07.375Z,101053.08
2019-03-25T02:26:36.547Z,101052.02
2019-03-25T02:29:05.697Z,101059.78
2019-03-25T02:31:34.887Z,101054.27
2019-03-25T02:34:05.379Z,101051.25
2019-03-25T02:36:34.452Z,101051.77
2019-03-25T02:39:05.241Z,101051.25
2019-03-25T02:41:34.406Z,101050.86
2019-03-25T02:44:03.584Z,101045.98
2019-03-25T02:46:32.728Z,101044.65
2019-03-25T02:49:01.936Z,101033.74
2019-03-25T02:51:31.092Z,101029.56
2019-03-25T02:54:00.263Z,101039.34
2019-03-25T02:56:29.438Z,101036.84
2019-03-25T02:58:58.604Z,101032.59
2019-03-25T03:01:27.821Z,101035.80
2019-03-25T03:03:56.980Z,101026.94
2019-03-25T03:06:26.504Z,101027.43
2019-03-25T03:08:55.701Z,101019.48
2019-03-25T03:11:24.867Z,101015.52
2019-03-25T03:13:54.028Z,101012.59
2019-03-25T03:16:23.257Z,101013.22
2019-03-25T03:18:52.396Z,101008.33
2019-03-25T03:21:21.545Z,100995.61
2019-03-25T03:23:50.712Z,100999.50
2019-03-25T03:26:20.476Z,100997.55
2019-03-25T03:28:49.656Z,100996.08
2019-03-25T03:31:18.794Z,100997.73
2019-03-25T03:33:47.967Z,100993.75
2019-03-25T03:36:17.125Z,100995.22
2019-03-25T03:38:46.309Z,100983.82
2019-03-25T03:41:15.477Z,100987.52
2019-03-25T03:43:44.674Z,100980.33
2019-03-25T03:46:13.988Z,100980.33
2019-03-25T03:48:43.140Z,100975.81
2019-03-25T03:51:12.559Z,100969.05
2019-03-25T03:53:41.818Z,100968.98
2019-03-25T03:56:13.530Z,100965.56
2019-03-25T03:58:43.548Z,100966.81
2019-03-25T04:01:12.714Z,100975.41
2019-03-25T04:03:41.910Z,100976.42
2019-03-25T04:06:11.067Z,100971.91
2019-03-25T04:08:40.343Z,100972.52
2019-03-25T04:11:09.494Z,100962.27
2019-03-25T04:13:38.711Z,100962.55
2019-03-25T04:16:07.869Z,100955.13
2019-03-25T04:18:38.099Z,100961.27
2019-03-25T04:21:07.277Z,100963.36
2019-03-25T04:23:36.438Z,100958.73
2019-03-25T04:26:05.695Z,100953.00
2019-03-25T04:28:35.298Z,100956.28
2019-03-25T04:31:04.466Z,100956.50
2019-03-25T04:33:33.619Z,100949.70
2019-03-25T04:36:02.793Z,100945.12
2019-03-25T04:38:32.183Z,100943.13
2019-03-25T04:41:01.445Z,100941.74
2019-03-25T04:43:30.586Z,100941.07
2019-03-25T04:45:59.755Z,100934.07
2019-03-25T04:48:28.937Z,100927.58
2019-03-25T04:50:58.099Z,100928.95
2019-03-25T04:53:27.261Z,100932.14
2019-03-25T04:55:56.425Z,100922.27
2019-03-25T04:58:25.593Z,100922.91
2019-03-25T05:00:54.767Z,100918.02
2019-03-25T05:03:23.963Z,100917.77
2019-03-25T05:05:53.148Z,100911.48
2019-03-25T05:08:22.340Z,100910.86
2019-03-25T05:10:51.531Z,100904.89
2019-03-25T05:13:20.693Z,100907.35
2019-03-25T05:15:49.875Z,100909.30
2019-03-25T05:18:19.084Z,100910.30
2019-03-25T05:20:48.285Z,100913.48
2019-03-25T05:23:17.512Z,100906.33
2019-03-25T05:25:46.685Z,100908.70
2019-03-25T05:28:15.834Z,100907.59
2019-03-25T05:30:44.991Z,100895.13
2019-03-25T05:33:14.296Z,100902.27
2019-03-25T05:35:43.524Z,100902.09
2019-03-25T05:38:12.698Z,100899.41
2019-03-25T05:40:41.852Z,100895.05
2019-03-25T05:43:10.996Z,100886.72
2019-03-25T05:45:40.136Z,100888.41
2019-03-25T05:48:09.346Z,100899.32
2019-03-25T05:50:38.496Z,100900.34
2019-03-25T05:53:07.669Z,100906.59
2019-03-25T05:55:36.947Z,100921.91
2019-03-25T05:58:06.143Z,100917.03
2019-03-25T06:00:36.698Z,100915.35
2019-03-25T06:03:06.000Z,100915.50
2019-03-25T06:05:35.186Z,100911.37
2019-03-25T06:08:04.444Z,100906.20
2019-03-25T06:10:33.600Z,100905.38
2019-03-25T06:13:02.789Z,100904.44
2019-03-25T06:15:31.942Z,100898.56
2019-03-25T06:18:01.103Z,100885.42
2019-03-25T06:20:30.275Z,100878.85
2019-03-25T06:22:59.460Z,100874.05
2019-03-25T06:25:28.659Z,100886.41
2019-03-25T06:27:58.064Z,100882.80
2019-03-25T06:30:30.169Z,100881.76
2019-03-25T06:32:59.561Z,100869.05
2019-03-25T06:35:28.709Z,100873.03
2019-03-25T06:37:57.899Z,100878.97
2019-03-25T06:40:27.079Z,100873.20
2019-03-25T06:42:56.261Z,100875.85
2019-03-25T06:45:25.465Z,100877.64
2019-03-25T06:47:54.679Z,100874.20
2019-03-25T06:50:23.827Z,100872.23
2019-03-25T06:52:53.701Z,100871.06
2019-03-25T06:55:22.863Z,100870.70
2019-03-25T06:57:52.112Z,100875.57
2019-03-25T07:00:21.768Z,100877.08
2019-03-25T07:02:50.944Z,100867.08
2019-03-25T07:05:20.219Z,100873.19
2019-03-25T07:07:49.416Z,100868.05
2019-03-25T07:10:31.515Z,100878.48
2019-03-25T07:13:01.265Z,100879.36
2019-03-25T07:15:30.556Z,100877.11
2019-03-25T07:17:59.796Z,100881.48
2019-03-25T07:20:29.126Z,100879.96
2019-03-25T07:22:58.437Z,100887.47
2019-03-25T07:25:27.627Z,100889.60
2019-03-25T07:27:56.905Z,100893.59
2019-03-25T07:30:26.082Z,100899.16
2019-03-25T07:32:55.240Z,100905.09
2019-03-25T07:35:24.431Z,100903.41
2019-03-25T07:37:53.568Z,100907.98
2019-03-25T07:40:22.756Z,100909.50
2019-03-25T07:42:52.016Z,100915.17
2019-03-25T07:45:21.216Z,100917.43
2019-03-25T07:47:50.385Z,100930.45
2019-03-25T07:50:19.705Z,100928.15
2019-03-25T07:52:48.854Z,100939.45
2019-03-25T07:55:18.054Z,100939.51
2019-03-25T07:57:48.616Z,100944.34
2019-03-25T08:00:18.568Z,100946.36
2019-03-25T08:02:47.771Z,100942.10
2019-03-25T08:05:17.073Z,100938.48
2019-03-25T08:07:49.837Z,100945.36
2019-03-25T08:10:34.936Z,100943.06
2019-03-25T08:13:04.338Z,100936.73
2019-03-25T08:15:33.883Z,100941.42
2019-03-25T08:18:03.190Z,100944.17
2019-03-25T08:20:32.464Z,100939.13
2019-03-25T08:23:01.621Z,100934.06
2019-03-25T08:25:30.965Z,100938.17
2019-03-25T08:28:00.688Z,100943.98
2019-03-25T08:30:30.068Z,100941.53
2019-03-25T08:32:59.390Z,100946.39
2019-03-25T08:35:28.655Z,100935.84
2019-03-25T08:37:57.885Z,100947.23
2019-03-25T08:40:27.125Z,100952.17
2019-03-25T08:42:56.277Z,100950.26
2019-03-25T08:45:25.547Z,100957.32
2019-03-25T08:47:54.748Z,100951.16
2019-03-25T08:50:23.994Z,100948.19
2019-03-25T08:52:53.332Z,100943.09
2019-03-25T08:55:22.548Z,100948.63
2019-03-25T08:57:51.834Z,100948.36
2019-03-25T09:00:21.245Z,100934.69
2019-03-25T09:02:50.419Z,100936.03
2019-03-25T09:05:19.830Z,100938.34
2019-03-25T09:07:49.033Z,100939.55
2019-03-25T09:10:18.364Z,100939.26
2019-03-25T09:12:47.553Z,100957.05
2019-03-25T09:15:16.853Z,100945.75
2019-03-25T09:17:46.250Z,100934.30
2019-03-25T09:20:15.893Z,100937.98
2019-03-25T09:22:45.465Z,100936.13
2019-03-25T09:25:17.149Z,100934.34
2019-03-25T09:27:46.346Z,100936.05
2019-03-25T09:30:36.051Z,100929.07
2019-03-25T09:33:05.367Z,100949.22
2019-03-25T09:35:34.583Z,100938.03
2019-03-25T09:38:03.904Z,100948.18
2019-03-25T09:40:33.051Z,100957.00
2019-03-25T09:43:02.277Z,100934.18
2019-03-25T09:45:31.463Z,100930.72
2019-03-25T09:48:00.711Z,100924.54
2019-03-25T09:50:29.948Z,100925.03
2019-03-25T09:52:59.170Z,100930.55
2019-03-25T09:55:28.391Z,100925.19
2019-03-25T09:57:57.582Z,100916.97
2019-03-25T10:00:31.677Z,100916.98
2019-03-25T10:03:01.047Z,100929.73
2019-03-25T10:05:30.491Z,100940.96
2019-03-25T10:07:59.660Z,100918.27
2019-03-25T10:10:28.890Z,100917.44
2019-03-25T10:12:58.440Z,100915.72
2019-03-25T10:15:27.683Z,100917.33
2019-03-25T10:17:56.953Z,100948.59
2019-03-25T10:20:26.866Z,100931.44
2019-03-25T10:22:56.307Z,100935.34
2019-03-25T10:25:25.574Z,100944.98
2019-03-25T10:27:54.834Z,100966.86
2019-03-25T10:30:24.453Z,100988.53
2019-03-25T10:32:53.705Z,100992.18
2019-03-25T10:35:22.873Z,100986.33
2019-03-25T10:37:52.124Z,100971.38
2019-03-25T10:40:21.299Z,100978.35
2019-03-25T10:42:51.105Z,100970.45
2019-03-25T10:45:20.363Z,100954.34
2019-03-25T10:47:49.532Z,100951.86
2019-03-25T10:50:19.792Z,100953.05
2019-03-25T10:52:49.001Z,100962.20
2019-03-25T10:55:18.253Z,100950.87
2019-03-25T10:57:47.447Z,100949.19
2019-03-25T11:00:17.191Z,100942.86
2019-03-25T11:02:46.435Z,100942.83
2019-03-25T11:05:15.718Z,100928.45
2019-03-25T11:07:44.935Z,100927.60
2019-03-25T11:10:14.409Z,100934.21
2019-03-25T11:12:43.603Z,100950.84
2019-03-25T11:15:13.453Z,100966.83
2019-03-25T11:17:42.703Z,100967.51
2019-03-25T11:20:12.245Z,100974.52
2019-03-25T11:22:41.394Z,100959.52
2019-03-25T11:25:12.290Z,100947.51
2019-03-25T11:27:41.467Z,100947.88
2019-03-25T11:30:11.355Z,100937.84
2019-03-25T11:32:40.694Z,100939.00
2019-03-25T11:35:10.519Z,100952.30
2019-03-25T11:37:39.765Z,100954.48
2019-03-25T11:40:10.965Z,100969.34
2019-03-25T11:42:40.198Z,100972.37
2019-03-25T11:45:10.243Z,100975.53
2019-03-25T11:47:39.505Z,100991.42
2019-03-25T11:50:09.439Z,101012.06
2019-03-25T11:52:38.683Z,100969.35
2019-03-25T11:55:09.734Z,100961.55
2019-03-25T11:58:08.057Z,100931.56
2019-03-25T12:00:37.325Z,100942.79
2019-03-25T12:03:06.565Z,100941.91
2019-03-25T12:05:35.801Z,100941.20
2019-03-25T12:08:05.302Z,100939.76
2019-03-25T12:10:34.648Z,100932.47
2019-03-25T12:13:03.874Z,100929.06
2019-03-25T12:15:33.193Z,100928.45
2019-03-25T12:18:02.373Z,100931.95
2019-03-25T12:20:31.631Z,100935.59
2019-03-25T12:23:09.830Z,100940.62
2019-03-25T12:35:49.316Z,100948.54
2019-03-25T12:38:18.630Z,100949.48
2019-03-25T12:40:53.962Z,100938.66
2019-03-25T12:43:24.131Z,100926.45
2019-03-25T12:46:04.549Z,100937.27
2019-03-25T12:48:38.025Z,100925.30
2019-03-25T12:51:07.282Z,100908.61
2019-03-25T12:53:36.540Z,100913.59
2019-03-25T12:56:05.787Z,100932.28
2019-03-25T12:58:35.034Z,100926.61
2019-03-25T13:01:04.284Z,100921.73
2019-03-25T13:03:33.458Z,100924.98
2019-03-25T13:06:02.800Z,100921.03
2019-03-25T13:08:33.471Z,100924.48
2019-03-25T13:11:02.696Z,100929.69
2019-03-25T13:13:31.864Z,100949.42
2019-03-25T13:16:01.047Z,100965.80
2019-03-25T13:18:32.820Z,100965.12
2019-03-25T13:21:08.792Z,100979.69
2019-03-25T13:23:37.986Z,100965.05
2019-03-25T13:26:07.172Z,100999.27
2019-03-25T13:28:36.335Z,101032.08
2019-03-25T13:31:05.537Z,101034.67
2019-03-25T13:33:34.718Z,101036.83
2019-03-25T13:36:04.168Z,101019.48
2019-03-25T13:38:33.346Z,101009.62
2019-03-25T13:41:02.535Z,101008.95
2019-03-25T13:43:31.720Z,100993.52
2019-03-25T13:46:05.293Z,100998.66
2019-03-25T13:48:31.902Z,101002.03
2019-03-25T13:51:01.049Z,100998.83
2019-03-25T13:53:30.214Z,101001.51
2019-03-25T13:55:59.355Z,101001.83
2019-03-25T13:58:28.933Z,100990.36
2019-03-25T14:00:58.214Z,100991.17
2019-03-25T14:03:27.400Z,101001.48
2019-03-25T14:05:56.617Z,101019.11
2019-03-25T14:08:25.821Z,101008.12
2019-03-25T14:10:55.061Z,101020.61
2019-03-25T14:13:24.244Z,101023.61
2019-03-25T14:15:53.428Z,101020.13
2019-03-25T14:18:22.691Z,101014.00
2019-03-25T14:20:51.846Z,101010.83
2019-03-25T14:23:21.017Z,101009.51
2019-03-25T14:25:50.277Z,101007.34
2019-03-25T14:28:19.459Z,101000.35
2019-03-25T14:30:48.636Z,100994.67
2019-03-25T14:33:17.784Z,100990.50
2019-03-25T14:35:46.963Z,100997.52
2019-03-25T14:38:16.158Z,101000.34
2019-03-25T14:40:46.222Z,100997.69
2019-03-25T14:43:15.372Z,100999.86
2019-03-25T14:45:45.277Z,100988.17
2019-03-25T14:48:14.517Z,100994.50
2019-03-25T14:50:43.790Z,100994.80
2019-03-25T14:53:12.956Z,100988.78
2019-03-25T14:55:42.271Z,101001.45
2019-03-25T14:58:11.407Z,101010.27
2019-03-25T15:00:40.664Z,101007.09
2019-03-25T15:03:09.809Z,101023.30
2019-03-25T15:05:39.147Z,101028.24
2019-03-25T15:08:08.306Z,101019.38
2019-03-25T15:10:37.479Z,101028.88
2019-03-25T15:13:06.739Z,101039.48
2019-03-25T15:15:35.906Z,101038.57
2019-03-25T15:18:15.001Z,101047.79
2019-03-25T15:20:35.969Z,101065.16
2019-03-25T15:23:05.201Z,101080.65
2019-03-25T15:25:34.884Z,101050.81
2019-03-25T15:28:04.099Z,101029.31
2019-03-25T15:30:36.339Z,101032.81
2019-03-25T15:33:04.319Z,101038.83
2019-03-25T15:35:33.481Z,101039.50
2019-03-25T15:38:02.647Z,101039.31
2019-03-25T15:47:47.211Z,101042.48
2019-03-25T15:54:00.413Z,101035.59
2019-03-25T15:57:04.583Z,101037.72
2019-03-25T15:59:43.663Z,101039.12
2019-03-25T16:04:58.000Z,101062.11
2019-03-25T16:14:29.451Z,101048.43
2019-03-25T16:16:58.613Z,101046.92
2019-03-25T16:20:31.415Z,101054.25
2019-03-25T16:23:16.923Z,101057.41
2019-03-25T16:25:47.801Z,101058.81
2019-03-25T16:28:27.363Z,101063.81
2019-03-25T16:31:08.651Z,101072.83
2019-03-25T16:33:38.108Z,101068.28
2019-03-25T16:44:40.415Z,101084.47
2019-03-25T16:55:35.363Z,101096.02
2019-03-25T17:09:35.202Z,101104.81
2019-03-25T17:18:56.306Z,101123.66
2019-03-25T17:21:58.004Z,101129.47
2019-03-25T17:25:17.226Z,101136.77
2019-03-25T17:28:31.363Z,101133.08
2019-03-25T17:31:09.121Z,101144.55
2019-03-25T17:33:50.067Z,101148.88
2019-03-25T17:36:41.172Z,101163.98
2019-03-25T17:39:36.825Z,101174.03
2019-03-25T17:42:21.002Z,101188.59
2019-03-25T17:51:22.160Z,101192.11
2019-03-25T17:54:03.979Z,101197.45
2019-03-25T18:01:17.855Z,101196.27
2019-03-25T18:04:11.222Z,101182.70
2019-03-25T18:06:56.222Z,101185.64
2019-03-25T18:09:43.855Z,101196.42
2019-03-25T18:12:58.571Z,101198.33
2019-03-25T18:16:18.914Z,101200.23
2019-03-25T18:22:39.263Z,101217.96
2019-03-25T18:28:40.188Z,101223.67
2019-03-25T18:31:43.723Z,101223.08
2019-03-25T18:34:27.267Z,101228.12
2019-03-25T18:37:33.053Z,101243.80
2019-03-25T18:40:33.379Z,101249.97
2019-03-25T18:43:28.252Z,101261.84
2019-03-25T18:46:18.777Z,101268.44
2019-03-25T18:49:43.183Z,101279.42
2019-03-25T18:52:35.387Z,101285.56
2019-03-25T18:55:24.053Z,101295.76
2019-03-25T18:58:07.150Z,101293.23
2019-03-25T19:00:47.365Z,101298.58
2019-03-25T19:04:11.870Z,101299.16
2019-03-25T19:06:54.499Z,101301.14
2019-03-25T19:09:37.943Z,101305.27
2019-03-25T19:12:15.815Z,101316.83
2019-03-25T19:15:31.240Z,101311.06
2019-03-25T19:18:22.648Z,101320.30
2019-03-25T19:21:01.427Z,101322.42
2019-03-25T19:23:59.674Z,101329.21
2019-03-25T19:26:45.322Z,101335.84
2019-03-25T19:29:29.119Z,101339.48
2019-03-25T19:32:08.847Z,101341.42
2019-03-25T19:35:14.740Z,101342.36
2019-03-25T19:38:23.944Z,101341.07
2019-03-25T19:44:46.241Z,101347.03
2019-03-25T19:47:37.612Z,101353.41
2019-03-25T19:50:41.383Z,101361.73
2019-03-25T19:53:49.778Z,101360.25
2019-03-25T19:56:42.739Z,101370.09
2019-03-25T20:02:37.070Z,101385.02
2019-03-25T20:05:37.513Z,101390.13
2019-03-25T20:08:25.210Z,101379.69
2019-03-25T20:18:52.239Z,101403.54
2019-03-25T20:42:38.517Z,101456.74
2019-03-25T20:48:54.481Z,101454.65
2019-03-25T20:52:18.709Z,101459.19
2019-03-25T20:59:36.009Z,101471.83
2019-03-25T21:02:44.186Z,101476.52
2019-03-25T21:05:33.984Z,101486.12
2019-03-25T21:09:13.945Z,101489.83
2019-03-25T21:15:30.734Z,101496.95
2019-03-25T21:22:04.955Z,101500.65
2019-03-25T21:25:08.097Z,101499.22
2019-03-25T21:29:07.018Z,101506.97
2019-03-25T21:39:29.110Z,101515.63
2019-03-25T21:42:14.709Z,101520.38
2019-03-25T21:44:40.802Z,101531.09
2019-03-25T21:47:54.046Z,101535.45
2019-03-25T21:51:05.884Z,101531.39
2019-03-25T21:53:59.227Z,101542.03
2019-03-25T21:57:06.297Z,101545.81
2019-03-25T22:00:06.354Z,101549.09
2019-03-25T22:07:49.237Z,101549.98
2019-03-25T22:09:57.288Z,101553.27
2019-03-25T22:16:46.853Z,101560.62
2019-03-25T22:19:59.425Z,101564.04
2019-03-25T22:29:29.769Z,101569.73
2019-03-25T22:36:47.361Z,101576.31
2019-03-25T22:38:48.915Z,101576.62
2019-03-25T22:45:35.525Z,101575.43
2019-03-25T22:48:22.792Z,101581.28
2019-03-25T22:50:48.780Z,101589.17
2019-03-25T22:53:40.459Z,101590.20
2019-03-25T22:56:41.890Z,101592.13
2019-03-25T23:00:43.838Z,101590.28
2019-03-25T23:03:01.185Z,101600.24
2019-03-25T23:05:31.874Z,101597.92
2019-03-25T23:08:01.053Z,101601.42
2019-03-25T23:11:02.307Z,101607.84
2019-03-25T23:13:50.797Z,101604.23
2019-03-25T23:16:26.225Z,101606.89
2019-03-25T23:19:52.487Z,101603.13
2019-03-25T23:22:57.945Z,101601.28
2019-03-25T23:25:30.694Z,101606.41
2019-03-25T23:28:02.505Z,101610.28
2019-03-25T23:31:33.957Z,101606.37
2019-03-25T23:34:45.438Z,101610.46
2019-03-25T23:41:15.603Z,101613.52
2019-03-25T23:48:05.404Z,101611.59
2019-03-25T23:54:26.889Z,101615.81
2019-03-25T23:57:46.186Z,101617.52
